createdAt,value
2023-03-26T00:01:33.959Z,98918.66
2023-03-26T00:04:01.308Z,98912.56
2023-03-26T00:06:36.808Z,98905.84
2023-03-26T00:09:05.450Z,98903.78
2023-03-26T00:11:32.229Z,98904.38
2023-03-26T00:13:59.287Z,98903.16
2023-03-26T00:16:31.320Z,98883.28
2023-03-26T00:18:58.796Z,98902.31
2023-03-26T00:21:28.007Z,98908.78
2023-03-26T00:24:04.553Z,98909.91
2023-03-26T00:26:34.076Z,98916.31
2023-03-26T00:29:03.418Z,98907.94
2023-03-26T00:31:30.846Z,98902.38
2023-03-26T00:33:57.971Z,98899.78
2023-03-26T00:36:26.942Z,98892.66
2023-03-26T00:38:54.403Z,98888.38
2023-03-26T00:41:25.088Z,98889.06
2023-03-26T00:43:56.224Z,98891.13
2023-03-26T00:46:24.268Z,98890.63
2023-03-26T00:48:51.108Z,98887.81
2023-03-26T00:51:20.754Z,98880.53
2023-03-26T00:53:49.317Z,98866.31
2023-03-26T00:56:16.151Z,98865.63
2023-03-26T00:58:43.414Z,98873.41
2023-03-26T01:01:16.586Z,98865.06
2023-03-26T01:03:57.070Z,98863.59
2023-03-26T01:06:36.043Z,98857.75
2023-03-26T01:09:13.562Z,98861.50
2023-03-26T01:11:40.316Z,98855.50
2023-03-26T01:14:33.319Z,98851.44
2023-03-26T01:17:02.514Z,98847.19
2023-03-26T01:19:34.128Z,98858.44
2023-03-26T01:22:00.818Z,98862.16
2023-03-26T01:24:27.584Z,98861.69
2023-03-26T01:27:17.924Z,98863.84
2023-03-26T01:30:15.298Z,98857.81
2023-03-26T01:32:55.608Z,98855.25
2023-03-26T01:35:41.216Z,98858.56
2023-03-26T01:38:27.881Z,98855.75
2023-03-26T01:41:21.086Z,98862.81
2023-03-26T01:43:58.966Z,98870.31
2023-03-26T01:46:27.393Z,98872.03
2023-03-26T01:48:55.523Z,98866.56
2023-03-26T01:51:34.453Z,98872.34
2023-03-26T01:54:08.803Z,98877.13
2023-03-26T01:57:01.880Z,98874.59
2023-03-26T02:00:13.064Z,98871.47
2023-03-26T02:03:10.106Z,98876.78
2023-03-26T02:05:49.981Z,98895.56
2023-03-26T02:08:23.645Z,98899.56
2023-03-26T02:10:57.853Z,98905.47
2023-03-26T02:13:25.911Z,98905.69
2023-03-26T02:15:58.177Z,98901.16
2023-03-26T02:18:25.314Z,98909.84
2023-03-26T02:20:55.888Z,98903.25
2023-03-26T02:23:22.626Z,98916.84
2023-03-26T02:25:49.344Z,98912.31
2023-03-26T02:28:17.150Z,98921.59
2023-03-26T02:30:45.935Z,98920.84
2023-03-26T02:33:15.424Z,98923.47
2023-03-26T02:35:46.072Z,98922.75
2023-03-26T02:38:14.585Z,98926.47
2023-03-26T02:40:41.777Z,98937.66
2023-03-26T02:43:08.865Z,98926.31
2023-03-26T02:45:35.716Z,98914.97
2023-03-26T02:48:03.012Z,98933.63
2023-03-26T02:50:32.597Z,98934.09
2023-03-26T02:52:59.242Z,98938.22
2023-03-26T02:55:26.207Z,98944.97
2023-03-26T02:57:52.950Z,98949.16
2023-03-26T03:00:22.167Z,98955.63
2023-03-26T03:02:49.723Z,98949.72
2023-03-26T03:05:18.161Z,98958.56
2023-03-26T03:07:46.726Z,98951.00
2023-03-26T03:10:15.644Z,98965.78
2023-03-26T03:12:42.624Z,98967.22
2023-03-26T03:15:09.785Z,98975.50
2023-03-26T03:17:36.474Z,98978.81
2023-03-26T03:20:05.144Z,98979.53
2023-03-26T03:22:31.772Z,98975.75
2023-03-26T03:24:59.987Z,98975.41
2023-03-26T03:27:26.739Z,98977.47
2023-03-26T03:29:55.874Z,98963.09
2023-03-26T03:32:23.437Z,98983.13
2023-03-26T03:34:51.170Z,98986.78
2023-03-26T03:37:18.965Z,98985.97
2023-03-26T03:39:46.260Z,98989.53
2023-03-26T03:42:12.959Z,99002.69
2023-03-26T03:44:39.554Z,99009.75
2023-03-26T03:47:07.050Z,99023.97
2023-03-26T03:49:33.821Z,99024.44
2023-03-26T03:52:01.427Z,99020.19
2023-03-26T03:54:28.386Z,99002.47
2023-03-26T03:56:55.157Z,99013.78
2023-03-26T03:59:21.831Z,99010.44
2023-03-26T04:01:48.623Z,99002.22
2023-03-26T04:04:15.500Z,98987.03
2023-03-26T04:06:42.247Z,98990.16
2023-03-26T04:09:10.417Z,98994.91
2023-03-26T04:11:37.259Z,98974.06
2023-03-26T04:14:04.026Z,98944.28
2023-03-26T04:16:31.039Z,98943.59
2023-03-26T04:18:58.444Z,98948.72
2023-03-26T04:21:26.405Z,98948.91
2023-03-26T04:23:54.340Z,98967.00
2023-03-26T04:26:21.090Z,98976.13
2023-03-26T04:28:54.999Z,98980.44
2023-03-26T04:31:29.524Z,98987.41
2023-03-26T04:34:05.641Z,98982.97
2023-03-26T04:36:34.681Z,98990.16
2023-03-26T04:39:05.096Z,99006.59
2023-03-26T04:41:32.585Z,98995.03
2023-03-26T04:44:02.062Z,98999.31
2023-03-26T04:46:33.546Z,99009.72
2023-03-26T04:49:01.234Z,99017.06
2023-03-26T04:51:38.455Z,99014.84
2023-03-26T04:54:07.303Z,99004.44
2023-03-26T04:56:39.831Z,99008.50
2023-03-26T04:59:08.835Z,99003.53
2023-03-26T05:01:37.936Z,99011.50
2023-03-26T05:04:04.890Z,99002.81
2023-03-26T05:06:34.485Z,99014.03
2023-03-26T05:09:02.298Z,99027.47
2023-03-26T05:11:28.976Z,99033.47
2023-03-26T05:13:57.069Z,99050.50
2023-03-26T05:16:24.881Z,99033.13
2023-03-26T05:18:51.815Z,99049.47
2023-03-26T05:21:18.522Z,99053.41
2023-03-26T05:23:45.489Z,99052.59
2023-03-26T05:26:12.606Z,99053.53
2023-03-26T05:28:39.529Z,99061.63
2023-03-26T05:31:07.049Z,99067.53
2023-03-26T05:33:34.170Z,99078.56
2023-03-26T05:36:03.290Z,99083.91
2023-03-26T05:38:30.750Z,99078.94
2023-03-26T05:41:02.090Z,99089.63
2023-03-26T05:43:29.837Z,99087.84
2023-03-26T05:45:56.779Z,99086.97
2023-03-26T05:48:24.013Z,99086.38
2023-03-26T05:50:54.755Z,99085.75
2023-03-26T05:53:23.677Z,99083.00
2023-03-26T05:55:58.313Z,99090.09
2023-03-26T05:58:26.475Z,99085.91
2023-03-26T06:01:10.659Z,99101.97
2023-03-26T06:03:40.554Z,99105.00
2023-03-26T06:06:15.657Z,99116.06
2023-03-26T06:09:01.535Z,99126.00
2023-03-26T06:11:31.212Z,99128.34
2023-03-26T06:13:58.217Z,99122.41
2023-03-26T06:16:27.190Z,99135.19
2023-03-26T06:18:56.586Z,99137.44
2023-03-26T06:21:27.695Z,99138.84
2023-03-26T06:23:55.419Z,99130.00
2023-03-26T06:26:22.324Z,99147.66
2023-03-26T06:28:49.081Z,99151.69
2023-03-26T06:31:17.428Z,99137.63
2023-03-26T06:33:44.311Z,99156.59
2023-03-26T06:36:11.234Z,99149.53
2023-03-26T06:38:38.193Z,99137.00
2023-03-26T06:41:06.300Z,99157.44
2023-03-26T06:43:34.005Z,99133.91
2023-03-26T06:46:01.793Z,99156.00
2023-03-26T06:48:28.760Z,99156.28
2023-03-26T06:50:55.910Z,99159.50
2023-03-26T06:53:22.721Z,99152.31
2023-03-26T06:55:49.646Z,99154.63
2023-03-26T06:58:16.988Z,99156.69
2023-03-26T07:00:43.996Z,99152.97
2023-03-26T07:03:11.641Z,99161.31
2023-03-26T07:05:41.150Z,99144.94
2023-03-26T07:08:08.081Z,99159.66
2023-03-26T07:10:34.764Z,99155.06
2023-03-26T07:13:01.608Z,99152.66
2023-03-26T07:15:29.054Z,99151.13
2023-03-26T07:17:56.414Z,99151.41
2023-03-26T07:20:24.142Z,99161.63
2023-03-26T07:22:51.540Z,99157.06
2023-03-26T07:25:19.249Z,99167.22
2023-03-26T07:28:08.436Z,99153.66
2023-03-26T07:30:50.356Z,99162.66
2023-03-26T07:33:29.156Z,99166.84
2023-03-26T07:36:19.754Z,99170.59
2023-03-26T07:39:12.598Z,99172.50
2023-03-26T07:41:49.503Z,99171.94
2023-03-26T07:44:48.105Z,99169.47
2023-03-26T07:47:26.218Z,99177.56
2023-03-26T07:49:55.376Z,99173.13
2023-03-26T07:52:22.421Z,99168.97
2023-03-26T07:54:49.503Z,99169.28
2023-03-26T07:57:35.157Z,99171.47
2023-03-26T08:00:26.762Z,99178.78
2023-03-26T08:03:22.700Z,99174.34
2023-03-26T08:06:00.863Z,99170.59
2023-03-26T08:08:42.263Z,99171.13
2023-03-26T08:11:33.042Z,99172.19
2023-03-26T08:14:32.722Z,99156.50
2023-03-26T08:17:09.731Z,99157.06
2023-03-26T08:20:02.395Z,99167.00
2023-03-26T08:22:36.795Z,99154.38
2023-03-26T08:25:23.026Z,99156.41
2023-03-26T08:27:55.918Z,99159.84
2023-03-26T08:30:25.482Z,99164.53
2023-03-26T08:32:58.721Z,99162.34
2023-03-26T08:35:27.252Z,99152.22
2023-03-26T08:37:54.285Z,99157.28
2023-03-26T08:40:55.005Z,99169.53
2023-03-26T08:43:56.442Z,99172.53
2023-03-26T08:46:45.630Z,99159.38
2023-03-26T08:49:36.944Z,99153.81
2023-03-26T08:52:41.088Z,99152.44
2023-03-26T08:55:44.824Z,99149.66
2023-03-26T08:58:35.814Z,99147.56
2023-03-26T09:01:39.202Z,99152.03
2023-03-26T09:04:46.923Z,99150.91
2023-03-26T09:07:28.618Z,99138.28
2023-03-26T09:10:02.209Z,99137.69
2023-03-26T09:12:53.672Z,99139.78
2023-03-26T09:15:54.906Z,99132.06
2023-03-26T09:18:43.440Z,99141.22
2023-03-26T09:21:22.455Z,99140.97
2023-03-26T09:24:14.227Z,99133.31
2023-03-26T09:26:47.054Z,99133.66
2023-03-26T09:29:25.724Z,99134.97
2023-03-26T09:32:14.224Z,99143.34
2023-03-26T09:35:14.677Z,99130.72
2023-03-26T09:37:56.805Z,99142.75
2023-03-26T09:43:54.435Z,99168.44
2023-03-26T09:46:26.782Z,99163.34
2023-03-26T09:49:10.301Z,99166.97
2023-03-26T09:52:14.339Z,99166.50
2023-03-26T09:54:53.062Z,99171.03
2023-03-26T09:57:38.025Z,99173.41
2023-03-26T10:00:32.358Z,99170.41
2023-03-26T10:03:15.794Z,99168.88
2023-03-26T10:06:01.221Z,99155.69
2023-03-26T10:08:47.607Z,99164.00
2023-03-26T10:11:20.003Z,99165.03
2023-03-26T10:14:10.926Z,99165.16
2023-03-26T10:17:03.346Z,99165.03
2023-03-26T10:19:39.349Z,99156.50
2023-03-26T10:22:25.408Z,99145.59
2023-03-26T10:25:10.469Z,99154.09
2023-03-26T10:27:54.317Z,99140.56
2023-03-26T10:30:23.586Z,99161.84
2023-03-26T10:33:09.497Z,99148.00
2023-03-26T10:36:05.413Z,99150.59
2023-03-26T10:38:34.824Z,99157.38
2023-03-26T10:41:10.218Z,99157.09
2023-03-26T10:44:08.009Z,99145.28
2023-03-26T10:46:38.366Z,99159.22
2023-03-26T10:49:56.127Z,99152.78
2023-03-26T10:52:29.590Z,99149.16
2023-03-26T10:55:27.191Z,99144.16
2023-03-26T10:58:03.174Z,99139.50
2023-03-26T11:00:31.220Z,99130.25
2023-03-26T11:03:28.351Z,99129.16
2023-03-26T11:06:34.102Z,99124.22
2023-03-26T11:09:03.873Z,99127.28
2023-03-26T11:11:45.236Z,99128.69
2023-03-26T11:14:34.807Z,99114.16
2023-03-26T11:17:41.432Z,99120.94
2023-03-26T11:20:18.818Z,99117.25
2023-03-26T11:23:00.597Z,99114.66
2023-03-26T11:26:01.490Z,99118.00
2023-03-26T11:29:04.175Z,99117.66
2023-03-26T11:32:03.109Z,99109.78
2023-03-26T11:34:39.325Z,99102.63
2023-03-26T11:37:15.453Z,99105.03
2023-03-26T11:39:50.120Z,99111.31
2023-03-26T11:42:19.854Z,99108.53
2023-03-26T11:44:51.547Z,99098.94
2023-03-26T11:47:23.567Z,99092.28
2023-03-26T11:49:55.331Z,99099.19
2023-03-26T11:52:22.462Z,99102.22
2023-03-26T11:54:50.687Z,99091.06
2023-03-26T11:57:22.602Z,99089.34
2023-03-26T11:59:58.072Z,99087.97
2023-03-26T12:02:32.749Z,99076.13
2023-03-26T12:05:14.477Z,99079.44
2023-03-26T12:08:01.290Z,99074.13
2023-03-26T12:10:38.133Z,99059.34
2023-03-26T12:13:38.967Z,99065.25
2023-03-26T12:16:17.552Z,99071.38
2023-03-26T12:18:46.295Z,99057.84
2023-03-26T12:21:19.498Z,99057.41
2023-03-26T12:24:05.777Z,99055.22
2023-03-26T12:26:47.017Z,99050.41
2023-03-26T12:29:16.849Z,99045.25
2023-03-26T12:32:02.964Z,99050.75
2023-03-26T12:34:36.825Z,99032.88
2023-03-26T12:37:05.872Z,99044.47
2023-03-26T12:40:07.770Z,99044.09
2023-03-26T12:44:50.582Z,99037.75
2023-03-26T12:45:28.499Z,99033.38
2023-03-26T12:48:03.930Z,99040.00
2023-03-26T12:51:09.743Z,99046.63
2023-03-26T12:53:39.654Z,99035.09
2023-03-26T12:56:36.472Z,99030.75
2023-03-26T12:59:14.269Z,99036.09
2023-03-26T13:01:50.575Z,99032.38
2023-03-26T13:04:35.450Z,99031.59
2023-03-26T13:07:09.717Z,99019.53
2023-03-26T13:09:45.692Z,99032.72
2023-03-26T13:12:12.730Z,99019.28
2023-03-26T13:15:08.015Z,99010.88
2023-03-26T13:17:54.896Z,99023.22
2023-03-26T13:20:44.027Z,99011.13
2023-03-26T13:23:42.163Z,99007.94
2023-03-26T13:26:27.967Z,99003.47
2023-03-26T13:29:09.894Z,99004.66
2023-03-26T13:32:06.533Z,99005.19
2023-03-26T13:34:36.451Z,99007.69
2023-03-26T13:37:26.009Z,99003.16
2023-03-26T13:39:55.642Z,99003.78
2023-03-26T13:42:38.045Z,99004.63
2023-03-26T13:45:07.650Z,99005.19
2023-03-26T13:47:39.452Z,99013.25
2023-03-26T13:50:24.750Z,99007.13
2023-03-26T13:52:57.488Z,99001.22
2023-03-26T13:55:44.466Z,98999.47
2023-03-26T13:58:17.599Z,99001.53
2023-03-26T14:01:02.710Z,99000.16
2023-03-26T14:03:35.866Z,98991.72
2023-03-26T14:06:12.581Z,98999.72
2023-03-26T14:08:44.858Z,98996.09
2023-03-26T14:11:19.633Z,98993.22
2023-03-26T14:14:10.179Z,98998.03
2023-03-26T14:16:44.521Z,98982.63
2023-03-26T14:19:33.754Z,99000.22
2023-03-26T14:22:21.879Z,98992.81
2023-03-26T14:25:36.311Z,98986.94
2023-03-26T14:28:33.742Z,98997.53
2023-03-26T14:31:06.176Z,98998.34
2023-03-26T14:33:42.112Z,98993.03
2023-03-26T14:36:39.293Z,98993.31
2023-03-26T14:39:23.906Z,98996.06
2023-03-26T14:41:53.390Z,99001.56
2023-03-26T14:44:47.971Z,98990.09
2023-03-26T14:47:26.331Z,98991.13
2023-03-26T14:49:59.038Z,98988.44
2023-03-26T14:52:27.476Z,98987.97
2023-03-26T14:54:58.690Z,98989.19
2023-03-26T14:57:39.570Z,98984.13
2023-03-26T15:00:43.776Z,98994.88
2023-03-26T15:03:29.537Z,98996.34
2023-03-26T15:06:21.331Z,98988.09
2023-03-26T15:09:00.308Z,98983.00
2023-03-26T15:12:17.951Z,98981.81
2023-03-26T15:15:02.190Z,98983.44
2023-03-26T15:17:50.433Z,98980.84
2023-03-26T15:20:41.227Z,98975.25
2023-03-26T15:23:32.306Z,98987.19
2023-03-26T15:26:37.166Z,98997.44
2023-03-26T15:29:16.405Z,98974.81
2023-03-26T15:31:47.683Z,98990.69
2023-03-26T15:34:45.084Z,98991.34
2023-03-26T15:37:48.965Z,98996.16
2023-03-26T15:40:40.493Z,98979.19
2023-03-26T15:43:13.626Z,99000.28
2023-03-26T15:46:35.966Z,98997.13
2023-03-26T15:49:33.586Z,99004.16
2023-03-26T15:52:06.446Z,99005.28
2023-03-26T15:54:46.880Z,99012.28
2023-03-26T15:57:26.761Z,99010.38
2023-03-26T16:00:19.956Z,98994.00
2023-03-26T16:03:09.525Z,99009.59
2023-03-26T16:05:44.747Z,99008.50
2023-03-26T16:08:30.751Z,99020.09
2023-03-26T16:11:00.094Z,99018.22
2023-03-26T16:13:26.700Z,99018.75
2023-03-26T16:16:04.103Z,99024.13
2023-03-26T16:18:31.051Z,99026.25
2023-03-26T16:21:31.420Z,99021.66
2023-03-26T16:24:02.243Z,99026.47
2023-03-26T16:26:31.815Z,99034.78
2023-03-26T16:29:14.395Z,99035.56
2023-03-26T16:32:05.912Z,99038.19
2023-03-26T16:34:59.511Z,99038.16
2023-03-26T16:37:33.681Z,99037.59
2023-03-26T16:40:28.088Z,99032.44
2023-03-26T16:42:54.761Z,99031.28
2023-03-26T16:45:33.385Z,99028.53
2023-03-26T16:48:21.123Z,99033.84
2023-03-26T16:51:03.854Z,99029.59
2023-03-26T16:53:57.787Z,99020.63
2023-03-26T16:56:43.644Z,99038.47
2023-03-26T16:59:38.186Z,99040.88
2023-03-26T17:02:20.009Z,99053.75
2023-03-26T17:04:52.036Z,99056.44
2023-03-26T17:07:35.717Z,99063.38
2023-03-26T17:10:32.602Z,99062.00
2023-03-26T17:13:36.343Z,99062.19
2023-03-26T17:16:17.884Z,99064.88
2023-03-26T17:19:09.420Z,99076.16
2023-03-26T17:21:58.462Z,99083.34
2023-03-26T17:24:49.271Z,99080.88
2023-03-26T17:27:34.255Z,99090.81
2023-03-26T17:30:32.453Z,99099.38
2023-03-26T17:33:00.058Z,99112.91
2023-03-26T17:35:46.921Z,99121.31
2023-03-26T17:38:25.855Z,99125.09
2023-03-26T17:40:55.315Z,99132.00
2023-03-26T17:43:53.083Z,99133.16
2023-03-26T17:46:41.370Z,99137.25
2023-03-26T17:49:14.166Z,99142.31
2023-03-26T17:52:01.664Z,99143.84
2023-03-26T17:54:41.455Z,99140.72
2023-03-26T17:57:41.937Z,99146.09
2023-03-26T18:00:25.570Z,99135.06
2023-03-26T18:02:57.686Z,99149.31
2023-03-26T18:05:29.192Z,99146.72
2023-03-26T18:08:11.136Z,99143.25
2023-03-26T18:10:40.851Z,99138.94
2023-03-26T18:13:38.639Z,99139.91
2023-03-26T18:16:21.431Z,99144.59
2023-03-26T18:18:54.437Z,99147.19
2023-03-26T18:21:35.277Z,99149.06
2023-03-26T18:24:03.307Z,99154.03
2023-03-26T18:26:39.790Z,99145.44
2023-03-26T18:29:21.839Z,99156.44
2023-03-26T18:31:54.812Z,99153.63
2023-03-26T18:34:22.427Z,99156.41
2023-03-26T18:37:08.546Z,99151.84
2023-03-26T18:39:35.362Z,99161.69
2023-03-26T18:42:02.483Z,99154.03
2023-03-26T18:44:29.286Z,99145.09
2023-03-26T18:46:56.368Z,99150.69
2023-03-26T18:49:26.250Z,99156.50
2023-03-26T18:51:57.076Z,99158.13
2023-03-26T18:54:27.842Z,99147.16
2023-03-26T18:56:55.204Z,99146.78
2023-03-26T18:59:35.282Z,99147.69
2023-03-26T19:02:13.964Z,99135.84
2023-03-26T19:04:46.793Z,99149.91
2023-03-26T19:07:17.143Z,99140.19
2023-03-26T19:09:44.513Z,99142.03
2023-03-26T19:12:22.908Z,99144.50
2023-03-26T19:15:10.373Z,99143.56
2023-03-26T19:17:42.630Z,99140.75
2023-03-26T19:20:38.149Z,99135.81
2023-03-26T19:23:05.460Z,99140.75
2023-03-26T19:25:39.870Z,99139.34
2023-03-26T19:28:15.606Z,99150.94
2023-03-26T19:30:43.243Z,99149.63
2023-03-26T19:33:18.886Z,99156.31
2023-03-26T19:35:52.147Z,99153.31
2023-03-26T19:38:24.127Z,99152.59
2023-03-26T19:40:58.998Z,99149.34
2023-03-26T19:43:27.183Z,99148.88
2023-03-26T19:46:00.863Z,99149.69
2023-03-26T19:48:46.887Z,99151.69
2023-03-26T19:51:24.288Z,99150.91
2023-03-26T19:53:56.086Z,99151.94
2023-03-26T19:56:23.152Z,99147.88
2023-03-26T19:58:50.380Z,99145.47
2023-03-26T20:01:17.999Z,99132.72
2023-03-26T20:03:47.882Z,99134.69
2023-03-26T20:06:18.230Z,99136.75
2023-03-26T20:08:44.971Z,99134.25
2023-03-26T20:11:19.080Z,99131.66
2023-03-26T20:13:46.572Z,99133.00
2023-03-26T20:16:19.159Z,99126.75
2023-03-26T20:18:46.208Z,99128.94
2023-03-26T20:21:13.058Z,99133.09
2023-03-26T20:23:41.123Z,99128.94
2023-03-26T20:26:13.146Z,99122.69
2023-03-26T20:28:53.207Z,99110.72
2023-03-26T20:31:26.344Z,99106.81
2023-03-26T20:33:54.188Z,99104.81
2023-03-26T20:36:33.215Z,99106.81
2023-03-26T20:39:01.375Z,99114.19
2023-03-26T20:41:29.249Z,99095.16
2023-03-26T20:43:56.070Z,99108.97
2023-03-26T20:46:31.316Z,99114.53
2023-03-26T20:48:59.766Z,99100.66
2023-03-26T20:51:29.075Z,99110.06
2023-03-26T20:53:56.361Z,99094.03
2023-03-26T20:56:23.561Z,99097.03
2023-03-26T20:59:03.674Z,99088.09
2023-03-26T21:01:35.035Z,99101.41
2023-03-26T21:04:04.451Z,99099.91
2023-03-26T21:06:31.274Z,99107.00
2023-03-26T21:08:58.272Z,99107.69
2023-03-26T21:11:43.830Z,99097.50
2023-03-26T21:14:17.226Z,99097.03
2023-03-26T21:16:44.292Z,99091.53
2023-03-26T21:19:11.361Z,99091.94
2023-03-26T21:21:46.271Z,99093.59
2023-03-26T21:24:21.769Z,99098.78
2023-03-26T21:27:17.482Z,99106.03
2023-03-26T21:29:44.445Z,99103.47
2023-03-26T21:32:12.315Z,99092.38
2023-03-26T21:34:47.779Z,99099.00
2023-03-26T21:37:22.858Z,99110.09
2023-03-26T21:39:49.703Z,99105.50
2023-03-26T21:42:16.581Z,99113.50
2023-03-26T21:44:43.507Z,99114.63
2023-03-26T21:47:11.780Z,99124.53
2023-03-26T21:49:38.996Z,99124.28
2023-03-26T21:52:06.225Z,99121.19
2023-03-26T21:54:33.371Z,99133.19
2023-03-26T21:56:59.976Z,99124.22
2023-03-26T21:59:36.631Z,99130.53
2023-03-26T22:02:26.313Z,99132.19
2023-03-26T22:05:13.292Z,99117.03
2023-03-26T22:07:54.876Z,99126.22
2023-03-26T22:10:22.137Z,99119.44
2023-03-26T22:12:49.406Z,99126.06
2023-03-26T22:15:18.293Z,99132.19
2023-03-26T22:17:46.126Z,99127.47
2023-03-26T22:20:14.791Z,99141.66
2023-03-26T22:22:48.723Z,99144.31
2023-03-26T22:25:19.016Z,99127.00
2023-03-26T22:27:47.173Z,99128.00
2023-03-26T22:30:15.698Z,99121.22
2023-03-26T22:32:43.505Z,99121.47
2023-03-26T22:35:10.614Z,99117.78
2023-03-26T22:37:37.876Z,99112.09
2023-03-26T22:40:10.447Z,99110.13
2023-03-26T22:42:37.259Z,99111.53
2023-03-26T22:45:04.571Z,99108.44
2023-03-26T22:47:33.749Z,99105.44
2023-03-26T22:50:00.805Z,99110.06
2023-03-26T22:52:28.213Z,99108.75
2023-03-26T22:54:55.704Z,99113.19
2023-03-26T22:57:23.214Z,99106.25
2023-03-26T22:59:50.394Z,99105.72
2023-03-26T23:02:17.666Z,99099.06
2023-03-26T23:04:44.514Z,99087.44
2023-03-26T23:07:11.235Z,99083.78
2023-03-26T23:09:38.004Z,99083.44
2023-03-26T23:12:05.051Z,99078.16
2023-03-26T23:14:34.896Z,99078.34
2023-03-26T23:17:01.610Z,99072.22
2023-03-26T23:19:30.159Z,99070.78
2023-03-26T23:21:57.548Z,99060.59
2023-03-26T23:24:26.778Z,99068.34
2023-03-26T23:26:53.518Z,99052.06
2023-03-26T23:29:20.302Z,99054.50
2023-03-26T23:31:47.680Z,99052.88
2023-03-26T23:34:16.395Z,99044.91
2023-03-26T23:36:44.837Z,99035.16
2023-03-26T23:39:11.706Z,99028.22
2023-03-26T23:41:38.655Z,99024.78
2023-03-26T23:44:05.485Z,99030.47
2023-03-26T23:46:34.887Z,99020.50
2023-03-26T23:49:04.498Z,99021.50
2023-03-26T23:51:32.007Z,99011.75
2023-03-26T23:53:59.920Z,99023.16
2023-03-26T23:56:30.052Z,99006.06
2023-03-26T23:58:56.959Z,99002.19
